sensor_id;sensor_type;location;lat;lon;timestamp;P1;durP1;ratioP1;P2;durP2;ratioP2
77004;SDS011;67261;53.132;18.006;2023-02-21T00:01:58;4.80;;;1.30;;
77004;SDS011;67261;53.132;18.006;2023-02-21T00:04:44;3.90;;;1.20;;
77004;SDS011;67261;53.132;18.006;2023-02-21T00:07:31;7.20;;;1.70;;
77004;SDS011;67261;53.132;18.006;2023-02-21T00:10:18;6.30;;;1.50;;
77004;SDS011;67261;53.132;18.006;2023-02-21T00:13:05;5.30;;;1.30;;
77004;SDS011;67261;53.132;18.006;2023-02-21T00:15:51;4.10;;;1.10;;
77004;SDS011;67261;53.132;18.006;2023-02-21T00:21:23;5.40;;;1.40;;
77004;SDS011;67261;53.132;18.006;2023-02-21T00:24:12;4.60;;;1.30;;
77004;SDS011;67261;53.132;18.006;2023-02-21T00:27:02;6.00;;;1.70;;
77004;SDS011;67261;53.132;18.006;2023-02-21T00:29:50;5.70;;;1.90;;
77004;SDS011;67261;53.132;18.006;2023-02-21T00:32:36;5.00;;;1.10;;
77004;SDS011;67261;53.132;18.006;2023-02-21T00:35:22;4.30;;;1.40;;
77004;SDS011;67261;53.132;18.006;2023-02-21T00:38:09;4.10;;;1.10;;
77004;SDS011;67261;53.132;18.006;2023-02-21T00:40:56;5.50;;;1.00;;
77004;SDS011;67261;53.132;18.006;2023-02-21T00:43:42;4.90;;;1.00;;
77004;SDS011;67261;53.132;18.006;2023-02-21T00:46:28;3.30;;;0.80;;
77004;SDS011;67261;53.132;18.006;2023-02-21T00:49:13;10.10;;;1.50;;
77004;SDS011;67261;53.132;18.006;2023-02-21T00:51:59;4.00;;;0.90;;
77004;SDS011;67261;53.132;18.006;2023-02-21T00:54:46;6.60;;;1.10;;
77004;SDS011;67261;53.132;18.006;2023-02-21T00:57:32;6.60;;;1.70;;
77004;SDS011;67261;53.132;18.006;2023-02-21T01:00:20;6.10;;;1.70;;
77004;SDS011;67261;53.132;18.006;2023-02-21T01:03:09;6.30;;;2.00;;
77004;SDS011;67261;53.132;18.006;2023-02-21T01:05:55;7.10;;;1.30;;
77004;SDS011;67261;53.132;18.006;2023-02-21T01:08:42;4.10;;;1.00;;
77004;SDS011;67261;53.132;18.006;2023-02-21T01:11:31;4.00;;;1.00;;
77004;SDS011;67261;53.132;18.006;2023-02-21T01:14:17;6.70;;;1.20;;
77004;SDS011;67261;53.132;18.006;2023-02-21T01:17:03;7.60;;;1.30;;
77004;SDS011;67261;53.132;18.006;2023-02-21T01:19:49;6.80;;;1.60;;
77004;SDS011;67261;53.132;18.006;2023-02-21T01:22:36;6.90;;;1.40;;
77004;SDS011;67261;53.132;18.006;2023-02-21T01:28:08;5.80;;;1.10;;
77004;SDS011;67261;53.132;18.006;2023-02-21T01:30:54;6.10;;;1.00;;
77004;SDS011;67261;53.132;18.006;2023-02-21T01:33:41;7.50;;;1.30;;
77004;SDS011;67261;53.132;18.006;2023-02-21T01:36:28;5.20;;;1.10;;
77004;SDS011;67261;53.132;18.006;2023-02-21T01:39:13;9.90;;;1.50;;
77004;SDS011;67261;53.132;18.006;2023-02-21T01:42:00;5.80;;;1.00;;
77004;SDS011;67261;53.132;18.006;2023-02-21T01:44:47;8.00;;;1.70;;
77004;SDS011;67261;53.132;18.006;2023-02-21T01:47:33;7.90;;;1.90;;
77004;SDS011;67261;53.132;18.006;2023-02-21T01:50:22;8.00;;;1.20;;
77004;SDS011;67261;53.132;18.006;2023-02-21T01:53:16;6.60;;;1.20;;
77004;SDS011;67261;53.132;18.006;2023-02-21T01:56:05;7.20;;;1.30;;
77004;SDS011;67261;53.132;18.006;2023-02-21T01:58:54;8.40;;;1.50;;
77004;SDS011;67261;53.132;18.006;2023-02-21T02:01:45;6.60;;;1.30;;
77004;SDS011;67261;53.132;18.006;2023-02-21T02:04:34;9.10;;;1.40;;
77004;SDS011;67261;53.132;18.006;2023-02-21T02:07:20;8.40;;;1.60;;
77004;SDS011;67261;53.132;18.006;2023-02-21T02:19:04;7.00;;;1.30;;
77004;SDS011;67261;53.132;18.006;2023-02-21T02:24:42;5.10;;;1.10;;
77004;SDS011;67261;53.132;18.006;2023-02-21T02:27:39;8.60;;;1.30;;
77004;SDS011;67261;53.132;18.006;2023-02-21T02:33:23;3.40;;;0.90;;
77004;SDS011;67261;53.132;18.006;2023-02-21T02:35:59;9.90;;;1.30;;
77004;SDS011;67261;53.132;18.006;2023-02-21T02:38:34;11.70;;;1.50;;
77004;SDS011;67261;53.132;18.006;2023-02-21T02:41:14;8.70;;;1.80;;
77004;SDS011;67261;53.132;18.006;2023-02-21T02:43:45;9.10;;;1.40;;
77004;SDS011;67261;53.132;18.006;2023-02-21T02:46:22;8.00;;;1.50;;
77004;SDS011;67261;53.132;18.006;2023-02-21T02:49:01;5.50;;;1.10;;
77004;SDS011;67261;53.132;18.006;2023-02-21T02:51:32;7.20;;;1.20;;
77004;SDS011;67261;53.132;18.006;2023-02-21T02:54:02;8.40;;;1.60;;
77004;SDS011;67261;53.132;18.006;2023-02-21T02:56:30;7.50;;;1.60;;
77004;SDS011;67261;53.132;18.006;2023-02-21T02:59:09;9.10;;;1.90;;
77004;SDS011;67261;53.132;18.006;2023-02-21T03:18:29;7.50;;;1.60;;
77004;SDS011;67261;53.132;18.006;2023-02-21T03:21:02;7.50;;;1.60;;
77004;SDS011;67261;53.132;18.006;2023-02-21T03:23:33;9.70;;;1.70;;
77004;SDS011;67261;53.132;18.006;2023-02-21T03:26:05;9.40;;;1.20;;
77004;SDS011;67261;53.132;18.006;2023-02-21T03:28:37;7.80;;;1.20;;
77004;SDS011;67261;53.132;18.006;2023-02-21T03:31:06;6.30;;;1.60;;
77004;SDS011;67261;53.132;18.006;2023-02-21T03:33:36;8.60;;;1.50;;
77004;SDS011;67261;53.132;18.006;2023-02-21T03:36:06;10.50;;;1.90;;
77004;SDS011;67261;53.132;18.006;2023-02-21T03:38:36;8.20;;;1.60;;
77004;SDS011;67261;53.132;18.006;2023-02-21T03:41:04;11.30;;;1.60;;
77004;SDS011;67261;53.132;18.006;2023-02-21T03:43:36;9.70;;;1.60;;
77004;SDS011;67261;53.132;18.006;2023-02-21T03:46:04;12.80;;;2.10;;
77004;SDS011;67261;53.132;18.006;2023-02-21T03:51:15;8.00;;;1.40;;
77004;SDS011;67261;53.132;18.006;2023-02-21T03:53:42;11.00;;;2.00;;
77004;SDS011;67261;53.132;18.006;2023-02-21T03:56:11;6.90;;;1.30;;
77004;SDS011;67261;53.132;18.006;2023-02-21T03:59:01;10.50;;;2.10;;
77004;SDS011;67261;53.132;18.006;2023-02-21T04:01:29;9.50;;;1.80;;
77004;SDS011;67261;53.132;18.006;2023-02-21T04:03:56;9.90;;;2.10;;
77004;SDS011;67261;53.132;18.006;2023-02-21T04:06:23;12.60;;;1.80;;
77004;SDS011;67261;53.132;18.006;2023-02-21T04:08:51;14.80;;;2.10;;
77004;SDS011;67261;53.132;18.006;2023-02-21T04:11:19;10.50;;;2.10;;
77004;SDS011;67261;53.132;18.006;2023-02-21T04:13:48;12.00;;;2.20;;
77004;SDS011;67261;53.132;18.006;2023-02-21T04:16:16;10.70;;;2.00;;
77004;SDS011;67261;53.132;18.006;2023-02-21T04:18:43;8.40;;;2.10;;
77004;SDS011;67261;53.132;18.006;2023-02-21T04:21:16;10.10;;;1.50;;
77004;SDS011;67261;53.132;18.006;2023-02-21T04:23:44;14.70;;;2.10;;
77004;SDS011;67261;53.132;18.006;2023-02-21T04:26:19;11.10;;;2.20;;
77004;SDS011;67261;53.132;18.006;2023-02-21T04:28:50;9.80;;;2.30;;
77004;SDS011;67261;53.132;18.006;2023-02-21T04:31:17;7.20;;;1.60;;
77004;SDS011;67261;53.132;18.006;2023-02-21T04:33:45;11.20;;;2.00;;
77004;SDS011;67261;53.132;18.006;2023-02-21T04:36:19;11.70;;;2.10;;
77004;SDS011;67261;53.132;18.006;2023-02-21T04:38:46;8.70;;;1.80;;
77004;SDS011;67261;53.132;18.006;2023-02-21T04:43:41;9.10;;;1.70;;
77004;SDS011;67261;53.132;18.006;2023-02-21T04:46:13;11.40;;;1.60;;
77004;SDS011;67261;53.132;18.006;2023-02-21T04:48:49;8.30;;;1.20;;
77004;SDS011;67261;53.132;18.006;2023-02-21T04:51:24;5.60;;;2.10;;
77004;SDS011;67261;53.132;18.006;2023-02-21T04:53:52;15.20;;;4.30;;
77004;SDS011;67261;53.132;18.006;2023-02-21T04:56:32;25.30;;;9.30;;
77004;SDS011;67261;53.132;18.006;2023-02-21T04:59:03;9.30;;;2.40;;
77004;SDS011;67261;53.132;18.006;2023-02-21T05:01:30;14.50;;;2.60;;
77004;SDS011;67261;53.132;18.006;2023-02-21T05:03:59;11.00;;;2.30;;
77004;SDS011;67261;53.132;18.006;2023-02-21T05:06:27;11.50;;;3.10;;
77004;SDS011;67261;53.132;18.006;2023-02-21T05:08:55;14.20;;;5.10;;
77004;SDS011;67261;53.132;18.006;2023-02-21T05:11:23;9.30;;;2.60;;
77004;SDS011;67261;53.132;18.006;2023-02-21T05:13:51;8.40;;;2.30;;
77004;SDS011;67261;53.132;18.006;2023-02-21T05:16:18;7.30;;;1.90;;
77004;SDS011;67261;53.132;18.006;2023-02-21T05:18:46;16.10;;;3.00;;
77004;SDS011;67261;53.132;18.006;2023-02-21T05:21:17;12.90;;;4.60;;
77004;SDS011;67261;53.132;18.006;2023-02-21T05:23:45;31.70;;;11.70;;
77004;SDS011;67261;53.132;18.006;2023-02-21T05:26:23;13.80;;;4.10;;
77004;SDS011;67261;53.132;18.006;2023-02-21T05:28:52;15.20;;;5.70;;
77004;SDS011;67261;53.132;18.006;2023-02-21T05:31:20;14.50;;;3.80;;
77004;SDS011;67261;53.132;18.006;2023-02-21T05:33:48;10.90;;;3.30;;
77004;SDS011;67261;53.132;18.006;2023-02-21T05:36:16;9.10;;;2.70;;
77004;SDS011;67261;53.132;18.006;2023-02-21T05:38:44;10.60;;;2.70;;
77004;SDS011;67261;53.132;18.006;2023-02-21T05:41:14;14.80;;;4.40;;
77004;SDS011;67261;53.132;18.006;2023-02-21T05:43:46;15.10;;;3.60;;
77004;SDS011;67261;53.132;18.006;2023-02-21T05:46:24;14.90;;;4.50;;
77004;SDS011;67261;53.132;18.006;2023-02-21T05:51:21;8.90;;;2.90;;
77004;SDS011;67261;53.132;18.006;2023-02-21T05:53:49;12.20;;;3.00;;
77004;SDS011;67261;53.132;18.006;2023-02-21T05:56:17;8.30;;;2.40;;
77004;SDS011;67261;53.132;18.006;2023-02-21T05:58:46;11.00;;;2.50;;
77004;SDS011;67261;53.132;18.006;2023-02-21T06:01:15;11.80;;;3.20;;
77004;SDS011;67261;53.132;18.006;2023-02-21T06:03:44;13.50;;;4.00;;
77004;SDS011;67261;53.132;18.006;2023-02-21T06:06:13;11.30;;;4.30;;
77004;SDS011;67261;53.132;18.006;2023-02-21T06:08:44;7.20;;;2.40;;
77004;SDS011;67261;53.132;18.006;2023-02-21T06:11:15;10.90;;;3.10;;
77004;SDS011;67261;53.132;18.006;2023-02-21T06:13:51;14.30;;;3.30;;
77004;SDS011;67261;53.132;18.006;2023-02-21T06:16:19;13.80;;;3.40;;
77004;SDS011;67261;53.132;18.006;2023-02-21T06:18:55;13.20;;;3.00;;
77004;SDS011;67261;53.132;18.006;2023-02-21T06:21:22;10.70;;;2.70;;
77004;SDS011;67261;53.132;18.006;2023-02-21T06:23:49;14.80;;;4.20;;
77004;SDS011;67261;53.132;18.006;2023-02-21T06:26:16;16.00;;;3.50;;
77004;SDS011;67261;53.132;18.006;2023-02-21T06:28:44;15.50;;;4.90;;
77004;SDS011;67261;53.132;18.006;2023-02-21T06:31:12;16.40;;;5.90;;
77004;SDS011;67261;53.132;18.006;2023-02-21T06:33:40;15.50;;;5.60;;
77004;SDS011;67261;53.132;18.006;2023-02-21T06:36:09;12.90;;;3.90;;
77004;SDS011;67261;53.132;18.006;2023-02-21T06:38:42;9.60;;;3.20;;
77004;SDS011;67261;53.132;18.006;2023-02-21T06:41:18;15.60;;;4.10;;
77004;SDS011;67261;53.132;18.006;2023-02-21T06:43:47;11.90;;;3.10;;
77004;SDS011;67261;53.132;18.006;2023-02-21T06:46:15;11.50;;;2.90;;
77004;SDS011;67261;53.132;18.006;2023-02-21T06:48:44;9.90;;;3.00;;
77004;SDS011;67261;53.132;18.006;2023-02-21T06:51:11;9.60;;;3.00;;
77004;SDS011;67261;53.132;18.006;2023-02-21T06:53:40;12.40;;;3.20;;
77004;SDS011;67261;53.132;18.006;2023-02-21T06:56:08;10.70;;;2.70;;
77004;SDS011;67261;53.132;18.006;2023-02-21T06:58:37;15.50;;;3.20;;
77004;SDS011;67261;53.132;18.006;2023-02-21T07:01:04;10.70;;;2.60;;
77004;SDS011;67261;53.132;18.006;2023-02-21T07:05:58;9.20;;;2.20;;
77004;SDS011;67261;53.132;18.006;2023-02-21T07:08:26;9.80;;;2.80;;
77004;SDS011;67261;53.132;18.006;2023-02-21T07:10:53;11.90;;;2.60;;
77004;SDS011;67261;53.132;18.006;2023-02-21T07:13:22;13.10;;;3.20;;
77004;SDS011;67261;53.132;18.006;2023-02-21T07:15:50;10.20;;;3.00;;
77004;SDS011;67261;53.132;18.006;2023-02-21T07:18:17;10.80;;;3.80;;
77004;SDS011;67261;53.132;18.006;2023-02-21T07:20:44;14.90;;;3.80;;
77004;SDS011;67261;53.132;18.006;2023-02-21T07:25:40;12.40;;;4.00;;
77004;SDS011;67261;53.132;18.006;2023-02-21T07:28:07;11.50;;;4.50;;
77004;SDS011;67261;53.132;18.006;2023-02-21T07:30:35;13.10;;;3.60;;
77004;SDS011;67261;53.132;18.006;2023-02-21T07:33:02;12.60;;;3.40;;
77004;SDS011;67261;53.132;18.006;2023-02-21T07:35:29;11.20;;;3.60;;
77004;SDS011;67261;53.132;18.006;2023-02-21T07:37:56;10.60;;;3.10;;
77004;SDS011;67261;53.132;18.006;2023-02-21T07:42:51;8.90;;;2.50;;
77004;SDS011;67261;53.132;18.006;2023-02-21T07:45:25;8.80;;;2.80;;
77004;SDS011;67261;53.132;18.006;2023-02-21T07:47:52;17.70;;;6.20;;
77004;SDS011;67261;53.132;18.006;2023-02-21T07:50:20;15.70;;;3.70;;
77004;SDS011;67261;53.132;18.006;2023-02-21T07:52:50;13.70;;;4.00;;
77004;SDS011;67261;53.132;18.006;2023-02-21T07:55:17;17.80;;;6.00;;
77004;SDS011;67261;53.132;18.006;2023-02-21T07:57:45;20.20;;;8.40;;
77004;SDS011;67261;53.132;18.006;2023-02-21T08:00:12;16.20;;;5.30;;
77004;SDS011;67261;53.132;18.006;2023-02-21T08:02:39;12.50;;;4.30;;
77004;SDS011;67261;53.132;18.006;2023-02-21T08:05:07;12.00;;;3.60;;
77004;SDS011;67261;53.132;18.006;2023-02-21T08:07:42;15.30;;;3.80;;
77004;SDS011;67261;53.132;18.006;2023-02-21T08:10:09;13.00;;;4.10;;
77004;SDS011;67261;53.132;18.006;2023-02-21T08:12:37;13.10;;;3.50;;
77004;SDS011;67261;53.132;18.006;2023-02-21T08:15:04;13.10;;;3.90;;
77004;SDS011;67261;53.132;18.006;2023-02-21T08:17:32;14.00;;;4.30;;
77004;SDS011;67261;53.132;18.006;2023-02-21T08:19:59;23.60;;;7.40;;
77004;SDS011;67261;53.132;18.006;2023-02-21T08:24:54;21.20;;;6.60;;
77004;SDS011;67261;53.132;18.006;2023-02-21T08:27:21;27.00;;;8.10;;
77004;SDS011;67261;53.132;18.006;2023-02-21T08:29:51;28.30;;;9.20;;
77004;SDS011;67261;53.132;18.006;2023-02-21T08:32:18;25.40;;;8.70;;
77004;SDS011;67261;53.132;18.006;2023-02-21T08:34:46;31.40;;;10.80;;
77004;SDS011;67261;53.132;18.006;2023-02-21T08:37:14;16.40;;;5.50;;
77004;SDS011;67261;53.132;18.006;2023-02-21T08:39:49;14.80;;;4.90;;
77004;SDS011;67261;53.132;18.006;2023-02-21T08:42:18;13.60;;;5.60;;
77004;SDS011;67261;53.132;18.006;2023-02-21T08:44:46;13.30;;;5.60;;
77004;SDS011;67261;53.132;18.006;2023-02-21T08:49:45;11.40;;;4.40;;
77004;SDS011;67261;53.132;18.006;2023-02-21T08:52:16;14.90;;;5.70;;
77004;SDS011;67261;53.132;18.006;2023-02-21T08:54:46;18.60;;;6.40;;
77004;SDS011;67261;53.132;18.006;2023-02-21T08:57:13;30.00;;;9.80;;
77004;SDS011;67261;53.132;18.006;2023-02-21T08:59:41;26.00;;;9.00;;
77004;SDS011;67261;53.132;18.006;2023-02-21T09:02:14;18.00;;;6.20;;
77004;SDS011;67261;53.132;18.006;2023-02-21T09:04:42;22.60;;;8.90;;
77004;SDS011;67261;53.132;18.006;2023-02-21T09:07:13;25.50;;;9.20;;
77004;SDS011;67261;53.132;18.006;2023-02-21T09:09:41;60.30;;;23.10;;
77004;SDS011;67261;53.132;18.006;2023-02-21T09:12:09;48.30;;;17.00;;
77004;SDS011;67261;53.132;18.006;2023-02-21T09:14:37;57.10;;;22.20;;
77004;SDS011;67261;53.132;18.006;2023-02-21T09:17:09;15.50;;;6.20;;
77004;SDS011;67261;53.132;18.006;2023-02-21T09:19:38;16.70;;;5.30;;
77004;SDS011;67261;53.132;18.006;2023-02-21T09:24:34;14.60;;;4.10;;
77004;SDS011;67261;53.132;18.006;2023-02-21T09:27:01;12.80;;;4.50;;
77004;SDS011;67261;53.132;18.006;2023-02-21T09:29:31;14.10;;;5.40;;
77004;SDS011;67261;53.132;18.006;2023-02-21T09:32:00;18.00;;;5.30;;
77004;SDS011;67261;53.132;18.006;2023-02-21T09:34:28;15.90;;;3.90;;
77004;SDS011;67261;53.132;18.006;2023-02-21T09:36:56;17.00;;;4.50;;
77004;SDS011;67261;53.132;18.006;2023-02-21T09:39:25;11.70;;;3.40;;
77004;SDS011;67261;53.132;18.006;2023-02-21T09:44:23;17.30;;;3.90;;
77004;SDS011;67261;53.132;18.006;2023-02-21T09:46:59;20.50;;;4.50;;
77004;SDS011;67261;53.132;18.006;2023-02-21T09:49:34;17.50;;;4.20;;
77004;SDS011;67261;53.132;18.006;2023-02-21T09:52:06;10.60;;;3.30;;
77004;SDS011;67261;53.132;18.006;2023-02-21T09:54:46;13.00;;;3.70;;
77004;SDS011;67261;53.132;18.006;2023-02-21T09:57:21;14.00;;;5.10;;
77004;SDS011;67261;53.132;18.006;2023-02-21T09:59:49;19.20;;;7.70;;
77004;SDS011;67261;53.132;18.006;2023-02-21T10:02:29;15.50;;;4.80;;
77004;SDS011;67261;53.132;18.006;2023-02-21T10:05:17;23.40;;;6.90;;
77004;SDS011;67261;53.132;18.006;2023-02-21T10:08:01;21.80;;;5.80;;
77004;SDS011;67261;53.132;18.006;2023-02-21T10:10:54;14.90;;;4.30;;
77004;SDS011;67261;53.132;18.006;2023-02-21T10:13:41;16.30;;;4.60;;
77004;SDS011;67261;53.132;18.006;2023-02-21T10:16:28;21.80;;;5.40;;
77004;SDS011;67261;53.132;18.006;2023-02-21T10:21:46;14.50;;;4.80;;
77004;SDS011;67261;53.132;18.006;2023-02-21T10:24:20;20.70;;;5.90;;
77004;SDS011;67261;53.132;18.006;2023-02-21T10:27:02;18.50;;;5.00;;
77004;SDS011;67261;53.132;18.006;2023-02-21T10:29:36;15.80;;;4.50;;
77004;SDS011;67261;53.132;18.006;2023-02-21T10:32:09;19.20;;;4.70;;
77004;SDS011;67261;53.132;18.006;2023-02-21T10:34:37;18.60;;;5.40;;
77004;SDS011;67261;53.132;18.006;2023-02-21T10:39:51;25.90;;;8.60;;
77004;SDS011;67261;53.132;18.006;2023-02-21T10:42:35;20.20;;;7.60;;
77004;SDS011;67261;53.132;18.006;2023-02-21T10:45:04;15.70;;;5.00;;
77004;SDS011;67261;53.132;18.006;2023-02-21T10:47:55;13.80;;;4.10;;
77004;SDS011;67261;53.132;18.006;2023-02-21T10:53:32;17.40;;;4.60;;
77004;SDS011;67261;53.132;18.006;2023-02-21T11:04:05;16.50;;;3.40;;
77004;SDS011;67261;53.132;18.006;2023-02-21T11:06:50;11.80;;;3.70;;
77004;SDS011;67261;53.132;18.006;2023-02-21T11:09:31;16.20;;;6.50;;
77004;SDS011;67261;53.132;18.006;2023-02-21T11:12:29;15.50;;;4.40;;
77004;SDS011;67261;53.132;18.006;2023-02-21T11:17:24;14.10;;;5.90;;
77004;SDS011;67261;53.132;18.006;2023-02-21T11:19:55;17.40;;;7.10;;
77004;SDS011;67261;53.132;18.006;2023-02-21T11:22:38;17.80;;;6.70;;
77004;SDS011;67261;53.132;18.006;2023-02-21T11:25:27;16.70;;;6.50;;
77004;SDS011;67261;53.132;18.006;2023-02-21T11:28:06;11.10;;;4.60;;
77004;SDS011;67261;53.132;18.006;2023-02-21T11:33:25;17.60;;;5.20;;
77004;SDS011;67261;53.132;18.006;2023-02-21T11:35:53;20.70;;;6.30;;
77004;SDS011;67261;53.132;18.006;2023-02-21T11:38:39;12.90;;;5.10;;
77004;SDS011;67261;53.132;18.006;2023-02-21T11:43:50;16.40;;;5.60;;
77004;SDS011;67261;53.132;18.006;2023-02-21T11:46:38;25.50;;;7.30;;
77004;SDS011;67261;53.132;18.006;2023-02-21T11:54:12;23.30;;;9.40;;
77004;SDS011;67261;53.132;18.006;2023-02-21T12:05:42;14.00;;;3.90;;
77004;SDS011;67261;53.132;18.006;2023-02-21T12:10:50;22.00;;;5.50;;
77004;SDS011;67261;53.132;18.006;2023-02-21T12:22:12;16.80;;;5.10;;
77004;SDS011;67261;53.132;18.006;2023-02-21T12:24:49;25.30;;;11.40;;
77004;SDS011;67261;53.132;18.006;2023-02-21T12:33:06;23.70;;;8.10;;
77004;SDS011;67261;53.132;18.006;2023-02-21T12:38:41;12.80;;;3.70;;
77004;SDS011;67261;53.132;18.006;2023-02-21T12:41:24;12.30;;;3.90;;
77004;SDS011;67261;53.132;18.006;2023-02-21T12:46:59;21.00;;;6.30;;
77004;SDS011;67261;53.132;18.006;2023-02-21T12:49:44;23.00;;;7.10;;
77004;SDS011;67261;53.132;18.006;2023-02-21T13:01:10;24.10;;;8.30;;
77004;SDS011;67261;53.132;18.006;2023-02-21T13:06:37;22.20;;;8.30;;
77004;SDS011;67261;53.132;18.006;2023-02-21T13:09:23;15.90;;;5.00;;
77004;SDS011;67261;53.132;18.006;2023-02-21T13:17:15;22.90;;;7.70;;
77004;SDS011;67261;53.132;18.006;2023-02-21T13:19:45;20.10;;;6.30;;
77004;SDS011;67261;53.132;18.006;2023-02-21T13:22:19;22.30;;;7.20;;
77004;SDS011;67261;53.132;18.006;2023-02-21T13:25:35;16.40;;;5.50;;
77004;SDS011;67261;53.132;18.006;2023-02-21T13:28:21;15.70;;;4.70;;
77004;SDS011;67261;53.132;18.006;2023-02-21T13:30:51;13.10;;;3.40;;
77004;SDS011;67261;53.132;18.006;2023-02-21T13:33:28;15.80;;;4.00;;
77004;SDS011;67261;53.132;18.006;2023-02-21T13:36:45;16.50;;;4.70;;
77004;SDS011;67261;53.132;18.006;2023-02-21T13:41:42;16.10;;;5.70;;
77004;SDS011;67261;53.132;18.006;2023-02-21T13:57:47;15.30;;;4.70;;
77004;SDS011;67261;53.132;18.006;2023-02-21T14:02:54;19.60;;;4.70;;
77004;SDS011;67261;53.132;18.006;2023-02-21T14:05:22;12.60;;;4.90;;
77004;SDS011;67261;53.132;18.006;2023-02-21T14:08:01;19.20;;;5.40;;
77004;SDS011;67261;53.132;18.006;2023-02-21T14:10:44;12.20;;;3.00;;
77004;SDS011;67261;53.132;18.006;2023-02-21T14:13:57;16.10;;;3.90;;
77004;SDS011;67261;53.132;18.006;2023-02-21T14:16:23;18.10;;;4.90;;
77004;SDS011;67261;53.132;18.006;2023-02-21T14:21:44;14.70;;;5.10;;
77004;SDS011;67261;53.132;18.006;2023-02-21T14:24:16;18.70;;;6.10;;
77004;SDS011;67261;53.132;18.006;2023-02-21T14:26:52;19.30;;;6.20;;
77004;SDS011;67261;53.132;18.006;2023-02-21T14:53:33;12.40;;;4.30;;
77004;SDS011;67261;53.132;18.006;2023-02-21T15:10:26;16.20;;;4.70;;
77004;SDS011;67261;53.132;18.006;2023-02-21T15:13:06;17.30;;;4.00;;
77004;SDS011;67261;53.132;18.006;2023-02-21T15:16:10;17.40;;;5.60;;
77004;SDS011;67261;53.132;18.006;2023-02-21T15:18:43;19.50;;;5.90;;
77004;SDS011;67261;53.132;18.006;2023-02-21T15:21:26;16.10;;;5.70;;
77004;SDS011;67261;53.132;18.006;2023-02-21T15:24:01;17.10;;;6.10;;
77004;SDS011;67261;53.132;18.006;2023-02-21T15:26:38;15.10;;;4.40;;
77004;SDS011;67261;53.132;18.006;2023-02-21T15:29:08;14.30;;;4.40;;
77004;SDS011;67261;53.132;18.006;2023-02-21T15:34:18;20.40;;;9.70;;
77004;SDS011;67261;53.132;18.006;2023-02-21T15:36:58;28.50;;;15.40;;
77004;SDS011;67261;53.132;18.006;2023-02-21T15:39:42;24.00;;;11.80;;
77004;SDS011;67261;53.132;18.006;2023-02-21T15:42:16;26.90;;;12.20;;
77004;SDS011;67261;53.132;18.006;2023-02-21T15:47:26;22.70;;;9.20;;
77004;SDS011;67261;53.132;18.006;2023-02-21T15:50:05;38.50;;;15.90;;
77004;SDS011;67261;53.132;18.006;2023-02-21T15:52:36;25.40;;;8.60;;
77004;SDS011;67261;53.132;18.006;2023-02-21T15:55:13;23.10;;;7.60;;
77004;SDS011;67261;53.132;18.006;2023-02-21T15:58:29;27.10;;;10.10;;
77004;SDS011;67261;53.132;18.006;2023-02-21T16:09:04;19.50;;;7.80;;
77004;SDS011;67261;53.132;18.006;2023-02-21T16:14:16;16.70;;;6.10;;
77004;SDS011;67261;53.132;18.006;2023-02-21T16:16:46;18.90;;;8.70;;
77004;SDS011;67261;53.132;18.006;2023-02-21T16:19:20;17.30;;;5.60;;
77004;SDS011;67261;53.132;18.006;2023-02-21T16:21:49;39.60;;;13.80;;
77004;SDS011;67261;53.132;18.006;2023-02-21T16:24:37;34.90;;;14.90;;
77004;SDS011;67261;53.132;18.006;2023-02-21T16:27:07;31.10;;;12.00;;
77004;SDS011;67261;53.132;18.006;2023-02-21T16:29:37;29.60;;;10.40;;
77004;SDS011;67261;53.132;18.006;2023-02-21T16:34:35;20.30;;;7.70;;
77004;SDS011;67261;53.132;18.006;2023-02-21T16:37:03;28.00;;;11.50;;
77004;SDS011;67261;53.132;18.006;2023-02-21T16:39:35;39.90;;;25.70;;
77004;SDS011;67261;53.132;18.006;2023-02-21T16:42:03;38.30;;;28.40;;
77004;SDS011;67261;53.132;18.006;2023-02-21T16:44:30;27.60;;;15.50;;
77004;SDS011;67261;53.132;18.006;2023-02-21T16:46:57;31.80;;;11.60;;
77004;SDS011;67261;53.132;18.006;2023-02-21T16:49:25;38.20;;;21.80;;
77004;SDS011;67261;53.132;18.006;2023-02-21T16:54:20;27.80;;;13.20;;
77004;SDS011;67261;53.132;18.006;2023-02-21T16:59:19;34.10;;;13.70;;
77004;SDS011;67261;53.132;18.006;2023-02-21T17:01:49;35.60;;;14.70;;
77004;SDS011;67261;53.132;18.006;2023-02-21T17:04:17;26.90;;;9.70;;
77004;SDS011;67261;53.132;18.006;2023-02-21T17:06:54;34.70;;;13.60;;
77004;SDS011;67261;53.132;18.006;2023-02-21T17:09:25;27.90;;;12.00;;
77004;SDS011;67261;53.132;18.006;2023-02-21T17:11:53;25.60;;;9.90;;
77004;SDS011;67261;53.132;18.006;2023-02-21T17:14:22;25.40;;;9.50;;
77004;SDS011;67261;53.132;18.006;2023-02-21T17:16:49;33.00;;;12.20;;
77004;SDS011;67261;53.132;18.006;2023-02-21T17:19:17;34.10;;;12.70;;
77004;SDS011;67261;53.132;18.006;2023-02-21T17:21:46;32.40;;;13.60;;
77004;SDS011;67261;53.132;18.006;2023-02-21T17:24:14;28.40;;;9.70;;
77004;SDS011;67261;53.132;18.006;2023-02-21T17:26:42;28.10;;;11.50;;
77004;SDS011;67261;53.132;18.006;2023-02-21T17:29:10;23.00;;;8.90;;
77004;SDS011;67261;53.132;18.006;2023-02-21T17:31:38;27.80;;;11.30;;
77004;SDS011;67261;53.132;18.006;2023-02-21T17:34:05;32.80;;;14.70;;
77004;SDS011;67261;53.132;18.006;2023-02-21T17:36:33;29.00;;;13.40;;
77004;SDS011;67261;53.132;18.006;2023-02-21T17:39:00;29.20;;;10.90;;
77004;SDS011;67261;53.132;18.006;2023-02-21T17:41:27;25.70;;;10.70;;
77004;SDS011;67261;53.132;18.006;2023-02-21T17:43:54;25.90;;;9.60;;
77004;SDS011;67261;53.132;18.006;2023-02-21T17:46:22;32.80;;;13.80;;
77004;SDS011;67261;53.132;18.006;2023-02-21T17:48:50;29.00;;;13.20;;
77004;SDS011;67261;53.132;18.006;2023-02-21T17:51:21;35.10;;;17.90;;
77004;SDS011;67261;53.132;18.006;2023-02-21T17:53:50;34.10;;;17.10;;
77004;SDS011;67261;53.132;18.006;2023-02-21T17:56:18;31.40;;;13.70;;
77004;SDS011;67261;53.132;18.006;2023-02-21T17:58:47;24.20;;;10.50;;
77004;SDS011;67261;53.132;18.006;2023-02-21T18:01:15;20.70;;;8.20;;
77004;SDS011;67261;53.132;18.006;2023-02-21T18:03:45;27.40;;;12.10;;
77004;SDS011;67261;53.132;18.006;2023-02-21T18:06:14;38.80;;;15.60;;
77004;SDS011;67261;53.132;18.006;2023-02-21T18:08:43;30.40;;;13.70;;
77004;SDS011;67261;53.132;18.006;2023-02-21T18:11:13;33.20;;;13.90;;
77004;SDS011;67261;53.132;18.006;2023-02-21T18:13:42;27.00;;;12.10;;
77004;SDS011;67261;53.132;18.006;2023-02-21T18:16:12;27.60;;;11.50;;
77004;SDS011;67261;53.132;18.006;2023-02-21T18:18:40;23.00;;;10.00;;
77004;SDS011;67261;53.132;18.006;2023-02-21T18:21:07;22.80;;;8.30;;
77004;SDS011;67261;53.132;18.006;2023-02-21T18:23:36;18.10;;;7.40;;
77004;SDS011;67261;53.132;18.006;2023-02-21T18:26:03;20.60;;;7.80;;
77004;SDS011;67261;53.132;18.006;2023-02-21T18:28:31;29.60;;;12.00;;
77004;SDS011;67261;53.132;18.006;2023-02-21T18:30:58;33.30;;;12.80;;
77004;SDS011;67261;53.132;18.006;2023-02-21T18:33:27;34.90;;;15.10;;
77004;SDS011;67261;53.132;18.006;2023-02-21T18:35:56;41.70;;;15.80;;
77004;SDS011;67261;53.132;18.006;2023-02-21T18:38:30;33.00;;;13.50;;
77004;SDS011;67261;53.132;18.006;2023-02-21T18:41:00;30.20;;;12.10;;
77004;SDS011;67261;53.132;18.006;2023-02-21T18:43:28;26.10;;;13.30;;
77004;SDS011;67261;53.132;18.006;2023-02-21T18:45:56;24.50;;;12.60;;
77004;SDS011;67261;53.132;18.006;2023-02-21T18:48:25;26.50;;;10.60;;